sensor_id;sensor_type;location;lat;lon;timestamp;P1;durP1;ratioP1;P2;durP2;ratioP2
11386;SDS011;5748;53.102;8.456;2023-03-12T00:01:08;1.10;;;1.00;;
11386;SDS011;5748;53.102;8.456;2023-03-12T00:03:45;1.30;;;1.03;;
11386;SDS011;5748;53.102;8.456;2023-03-12T00:06:15;1.03;;;0.83;;
11386;SDS011;5748;53.102;8.456;2023-03-12T00:08:54;0.90;;;0.90;;
11386;SDS011;5748;53.102;8.456;2023-03-12T00:11:21;0.80;;;0.80;;
11386;SDS011;5748;53.102;8.456;2023-03-12T00:13:49;1.27;;;1.17;;
11386;SDS011;5748;53.102;8.456;2023-03-12T00:16:16;1.00;;;0.90;;
11386;SDS011;5748;53.102;8.456;2023-03-12T00:18:46;1.20;;;1.10;;
11386;SDS011;5748;53.102;8.456;2023-03-12T00:21:14;1.63;;;1.13;;
11386;SDS011;5748;53.102;8.456;2023-03-12T00:23:42;1.10;;;1.00;;
11386;SDS011;5748;53.102;8.456;2023-03-12T00:26:13;1.13;;;1.03;;
11386;SDS011;5748;53.102;8.456;2023-03-12T00:28:41;0.97;;;0.93;;
11386;SDS011;5748;53.102;8.456;2023-03-12T00:31:13;0.83;;;0.83;;
11386;SDS011;5748;53.102;8.456;2023-03-12T00:33:45;0.90;;;0.90;;
11386;SDS011;5748;53.102;8.456;2023-03-12T00:36:27;1.10;;;1.00;;
11386;SDS011;5748;53.102;8.456;2023-03-12T00:39:00;1.10;;;1.00;;
11386;SDS011;5748;53.102;8.456;2023-03-12T00:41:30;1.53;;;0.90;;
11386;SDS011;5748;53.102;8.456;2023-03-12T00:44:04;0.90;;;0.90;;
11386;SDS011;5748;53.102;8.456;2023-03-12T00:46:31;0.90;;;0.90;;
11386;SDS011;5748;53.102;8.456;2023-03-12T00:48:59;1.10;;;1.00;;
11386;SDS011;5748;53.102;8.456;2023-03-12T00:51:35;1.00;;;1.00;;
11386;SDS011;5748;53.102;8.456;2023-03-12T00:54:19;0.90;;;0.90;;
11386;SDS011;5748;53.102;8.456;2023-03-12T00:56:47;1.10;;;1.00;;
11386;SDS011;5748;53.102;8.456;2023-03-12T00:59:15;0.97;;;0.90;;
11386;SDS011;5748;53.102;8.456;2023-03-12T01:01:43;1.30;;;0.87;;
11386;SDS011;5748;53.102;8.456;2023-03-12T01:04:10;0.93;;;0.93;;
11386;SDS011;5748;53.102;8.456;2023-03-12T01:06:38;0.90;;;0.90;;
11386;SDS011;5748;53.102;8.456;2023-03-12T01:09:07;1.47;;;0.87;;
11386;SDS011;5748;53.102;8.456;2023-03-12T01:11:34;0.80;;;0.80;;
11386;SDS011;5748;53.102;8.456;2023-03-12T01:14:04;0.80;;;0.80;;
11386;SDS011;5748;53.102;8.456;2023-03-12T01:16:33;1.10;;;1.00;;
11386;SDS011;5748;53.102;8.456;2023-03-12T01:19:00;0.83;;;0.83;;
11386;SDS011;5748;53.102;8.456;2023-03-12T01:21:29;0.97;;;0.90;;
11386;SDS011;5748;53.102;8.456;2023-03-12T01:23:57;1.30;;;1.07;;
11386;SDS011;5748;53.102;8.456;2023-03-12T01:26:24;1.00;;;0.90;;
11386;SDS011;5748;53.102;8.456;2023-03-12T01:28:51;1.83;;;1.00;;
11386;SDS011;5748;53.102;8.456;2023-03-12T01:31:19;1.03;;;0.77;;
11386;SDS011;5748;53.102;8.456;2023-03-12T01:33:47;0.70;;;0.70;;
11386;SDS011;5748;53.102;8.456;2023-03-12T01:36:15;0.80;;;0.80;;
11386;SDS011;5748;53.102;8.456;2023-03-12T01:38:46;0.80;;;0.80;;
11386;SDS011;5748;53.102;8.456;2023-03-12T01:41:15;0.83;;;0.70;;
11386;SDS011;5748;53.102;8.456;2023-03-12T01:43:42;0.90;;;0.90;;
11386;SDS011;5748;53.102;8.456;2023-03-12T01:46:26;1.13;;;0.97;;
11386;SDS011;5748;53.102;8.456;2023-03-12T01:48:57;0.90;;;0.80;;
11386;SDS011;5748;53.102;8.456;2023-03-12T01:51:31;0.70;;;0.70;;
11386;SDS011;5748;53.102;8.456;2023-03-12T01:54:03;0.87;;;0.87;;
11386;SDS011;5748;53.102;8.456;2023-03-12T01:56:34;1.83;;;1.10;;
11386;SDS011;5748;53.102;8.456;2023-03-12T01:59:06;1.20;;;1.10;;
11386;SDS011;5748;53.102;8.456;2023-03-12T02:01:39;1.10;;;1.00;;
11386;SDS011;5748;53.102;8.456;2023-03-12T02:04:08;1.50;;;1.10;;
11386;SDS011;5748;53.102;8.456;2023-03-12T02:06:38;1.50;;;1.00;;
11386;SDS011;5748;53.102;8.456;2023-03-12T02:09:13;1.17;;;1.07;;
11386;SDS011;5748;53.102;8.456;2023-03-12T02:11:40;1.67;;;1.10;;
11386;SDS011;5748;53.102;8.456;2023-03-12T02:14:07;1.37;;;1.00;;
11386;SDS011;5748;53.102;8.456;2023-03-12T02:16:34;1.20;;;1.00;;
11386;SDS011;5748;53.102;8.456;2023-03-12T02:19:03;1.27;;;1.17;;
11386;SDS011;5748;53.102;8.456;2023-03-12T02:21:38;1.87;;;1.10;;
11386;SDS011;5748;53.102;8.456;2023-03-12T02:24:06;1.33;;;1.10;;
11386;SDS011;5748;53.102;8.456;2023-03-12T02:26:42;1.30;;;1.20;;
11386;SDS011;5748;53.102;8.456;2023-03-12T02:29:09;1.70;;;1.20;;
11386;SDS011;5748;53.102;8.456;2023-03-12T02:31:39;1.67;;;1.20;;
11386;SDS011;5748;53.102;8.456;2023-03-12T02:34:12;1.10;;;1.00;;
11386;SDS011;5748;53.102;8.456;2023-03-12T02:36:39;1.30;;;1.20;;
11386;SDS011;5748;53.102;8.456;2023-03-12T02:39:06;1.47;;;1.07;;
11386;SDS011;5748;53.102;8.456;2023-03-12T02:41:36;1.07;;;0.97;;
11386;SDS011;5748;53.102;8.456;2023-03-12T02:44:09;1.13;;;1.03;;
11386;SDS011;5748;53.102;8.456;2023-03-12T02:46:41;1.00;;;0.90;;
11386;SDS011;5748;53.102;8.456;2023-03-12T02:49:11;1.03;;;0.93;;
11386;SDS011;5748;53.102;8.456;2023-03-12T02:51:38;0.90;;;0.90;;
11386;SDS011;5748;53.102;8.456;2023-03-12T02:54:07;1.20;;;1.10;;
11386;SDS011;5748;53.102;8.456;2023-03-12T02:56:34;1.27;;;1.17;;
11386;SDS011;5748;53.102;8.456;2023-03-12T02:59:02;1.20;;;1.10;;
11386;SDS011;5748;53.102;8.456;2023-03-12T03:01:31;1.20;;;1.10;;
11386;SDS011;5748;53.102;8.456;2023-03-12T03:03:58;1.07;;;1.07;;
11386;SDS011;5748;53.102;8.456;2023-03-12T03:06:26;1.30;;;1.20;;
11386;SDS011;5748;53.102;8.456;2023-03-12T03:08:54;1.00;;;0.93;;
11386;SDS011;5748;53.102;8.456;2023-03-12T03:11:21;1.10;;;1.10;;
11386;SDS011;5748;53.102;8.456;2023-03-12T03:13:48;1.00;;;1.00;;
11386;SDS011;5748;53.102;8.456;2023-03-12T03:16:16;1.97;;;1.10;;
11386;SDS011;5748;53.102;8.456;2023-03-12T03:18:44;1.10;;;1.00;;
11386;SDS011;5748;53.102;8.456;2023-03-12T03:21:12;1.07;;;1.00;;
11386;SDS011;5748;53.102;8.456;2023-03-12T03:23:40;1.20;;;1.10;;
11386;SDS011;5748;53.102;8.456;2023-03-12T03:26:09;1.10;;;1.00;;
11386;SDS011;5748;53.102;8.456;2023-03-12T03:28:36;0.83;;;0.83;;
11386;SDS011;5748;53.102;8.456;2023-03-12T03:31:03;0.80;;;0.80;;
11386;SDS011;5748;53.102;8.456;2023-03-12T03:33:31;0.90;;;0.90;;
11386;SDS011;5748;53.102;8.456;2023-03-12T03:36:02;1.13;;;1.03;;
11386;SDS011;5748;53.102;8.456;2023-03-12T03:38:31;1.07;;;0.90;;
11386;SDS011;5748;53.102;8.456;2023-03-12T03:40:59;1.07;;;0.97;;
11386;SDS011;5748;53.102;8.456;2023-03-12T03:43:27;1.17;;;1.07;;
11386;SDS011;5748;53.102;8.456;2023-03-12T03:45:58;1.20;;;1.10;;
11386;SDS011;5748;53.102;8.456;2023-03-12T03:48:26;1.30;;;1.20;;
11386;SDS011;5748;53.102;8.456;2023-03-12T03:50:54;1.00;;;1.00;;
11386;SDS011;5748;53.102;8.456;2023-03-12T03:53:27;1.10;;;1.00;;
11386;SDS011;5748;53.102;8.456;2023-03-12T03:55:54;1.27;;;1.17;;
11386;SDS011;5748;53.102;8.456;2023-03-12T03:58:21;1.20;;;1.10;;
11386;SDS011;5748;53.102;8.456;2023-03-12T04:00:48;0.90;;;0.90;;
11386;SDS011;5748;53.102;8.456;2023-03-12T04:03:15;1.13;;;0.90;;
11386;SDS011;5748;53.102;8.456;2023-03-12T04:05:42;1.20;;;1.10;;
11386;SDS011;5748;53.102;8.456;2023-03-12T04:08:10;0.83;;;0.83;;
11386;SDS011;5748;53.102;8.456;2023-03-12T04:10:39;1.10;;;0.90;;
11386;SDS011;5748;53.102;8.456;2023-03-12T04:13:06;1.20;;;0.97;;
11386;SDS011;5748;53.102;8.456;2023-03-12T04:15:33;1.13;;;1.03;;
11386;SDS011;5748;53.102;8.456;2023-03-12T04:18:00;1.00;;;0.97;;
11386;SDS011;5748;53.102;8.456;2023-03-12T04:20:27;1.00;;;1.00;;
11386;SDS011;5748;53.102;8.456;2023-03-12T04:22:54;0.90;;;0.90;;
11386;SDS011;5748;53.102;8.456;2023-03-12T04:25:22;1.10;;;1.00;;
11386;SDS011;5748;53.102;8.456;2023-03-12T04:27:50;1.00;;;1.00;;
11386;SDS011;5748;53.102;8.456;2023-03-12T04:30:17;1.00;;;1.00;;
11386;SDS011;5748;53.102;8.456;2023-03-12T04:32:44;1.37;;;1.20;;
11386;SDS011;5748;53.102;8.456;2023-03-12T04:35:11;1.23;;;1.13;;
11386;SDS011;5748;53.102;8.456;2023-03-12T04:37:39;1.10;;;1.07;;
11386;SDS011;5748;53.102;8.456;2023-03-12T04:40:06;1.27;;;1.17;;
11386;SDS011;5748;53.102;8.456;2023-03-12T04:42:35;1.97;;;1.30;;
11386;SDS011;5748;53.102;8.456;2023-03-12T04:45:05;1.30;;;1.20;;
11386;SDS011;5748;53.102;8.456;2023-03-12T04:47:33;1.53;;;1.20;;
11386;SDS011;5748;53.102;8.456;2023-03-12T04:50:00;1.13;;;1.03;;
11386;SDS011;5748;53.102;8.456;2023-03-12T04:52:27;1.70;;;1.20;;
11386;SDS011;5748;53.102;8.456;2023-03-12T04:54:54;1.30;;;1.20;;
11386;SDS011;5748;53.102;8.456;2023-03-12T04:57:23;1.30;;;1.20;;
11386;SDS011;5748;53.102;8.456;2023-03-12T04:59:50;1.17;;;1.07;;
11386;SDS011;5748;53.102;8.456;2023-03-12T05:02:19;1.30;;;1.20;;
11386;SDS011;5748;53.102;8.456;2023-03-12T05:04:46;1.10;;;1.00;;
11386;SDS011;5748;53.102;8.456;2023-03-12T05:07:13;1.07;;;1.03;;
11386;SDS011;5748;53.102;8.456;2023-03-12T05:09:40;1.40;;;1.30;;
11386;SDS011;5748;53.102;8.456;2023-03-12T05:12:08;1.23;;;1.13;;
11386;SDS011;5748;53.102;8.456;2023-03-12T05:14:35;1.50;;;1.30;;
11386;SDS011;5748;53.102;8.456;2023-03-12T05:17:03;1.70;;;1.20;;
11386;SDS011;5748;53.102;8.456;2023-03-12T05:19:32;1.20;;;1.10;;
11386;SDS011;5748;53.102;8.456;2023-03-12T05:21:59;0.90;;;0.90;;
11386;SDS011;5748;53.102;8.456;2023-03-12T05:24:26;1.13;;;1.03;;
11386;SDS011;5748;53.102;8.456;2023-03-12T05:26:53;1.13;;;1.03;;
11386;SDS011;5748;53.102;8.456;2023-03-12T05:29:20;1.50;;;1.30;;
11386;SDS011;5748;53.102;8.456;2023-03-12T05:31:48;1.20;;;1.10;;
11386;SDS011;5748;53.102;8.456;2023-03-12T05:34:20;1.30;;;1.20;;
11386;SDS011;5748;53.102;8.456;2023-03-12T05:36:50;1.30;;;1.20;;
11386;SDS011;5748;53.102;8.456;2023-03-12T05:39:17;1.03;;;1.03;;
11386;SDS011;5748;53.102;8.456;2023-03-12T05:41:44;1.97;;;1.23;;
11386;SDS011;5748;53.102;8.456;2023-03-12T05:44:11;1.23;;;1.10;;
11386;SDS011;5748;53.102;8.456;2023-03-12T05:46:40;1.30;;;1.10;;
11386;SDS011;5748;53.102;8.456;2023-03-12T05:49:07;1.30;;;1.10;;
11386;SDS011;5748;53.102;8.456;2023-03-12T05:51:34;1.40;;;1.30;;
11386;SDS011;5748;53.102;8.456;2023-03-12T05:54:03;1.30;;;1.20;;
11386;SDS011;5748;53.102;8.456;2023-03-12T05:56:30;1.20;;;1.10;;
11386;SDS011;5748;53.102;8.456;2023-03-12T05:58:57;1.50;;;1.23;;
11386;SDS011;5748;53.102;8.456;2023-03-12T06:01:25;1.53;;;1.20;;
11386;SDS011;5748;53.102;8.456;2023-03-12T06:03:54;1.50;;;1.20;;
11386;SDS011;5748;53.102;8.456;2023-03-12T06:06:21;1.50;;;1.40;;
11386;SDS011;5748;53.102;8.456;2023-03-12T06:08:49;1.57;;;1.40;;
11386;SDS011;5748;53.102;8.456;2023-03-12T06:11:18;1.33;;;1.23;;
11386;SDS011;5748;53.102;8.456;2023-03-12T06:13:45;1.27;;;1.17;;
11386;SDS011;5748;53.102;8.456;2023-03-12T06:16:14;1.50;;;1.40;;
11386;SDS011;5748;53.102;8.456;2023-03-12T06:18:45;1.40;;;1.30;;
11386;SDS011;5748;53.102;8.456;2023-03-12T06:21:13;1.50;;;1.40;;
11386;SDS011;5748;53.102;8.456;2023-03-12T06:23:42;2.17;;;1.40;;
11386;SDS011;5748;53.102;8.456;2023-03-12T06:26:11;1.67;;;1.57;;
11386;SDS011;5748;53.102;8.456;2023-03-12T06:28:40;1.97;;;1.30;;
11386;SDS011;5748;53.102;8.456;2023-03-12T06:31:07;1.73;;;1.50;;
11386;SDS011;5748;53.102;8.456;2023-03-12T06:33:34;1.60;;;1.50;;
11386;SDS011;5748;53.102;8.456;2023-03-12T06:36:02;1.73;;;1.50;;
11386;SDS011;5748;53.102;8.456;2023-03-12T06:38:32;1.70;;;1.50;;
11386;SDS011;5748;53.102;8.456;2023-03-12T06:41:00;2.00;;;1.53;;
11386;SDS011;5748;53.102;8.456;2023-03-12T06:43:31;2.20;;;1.87;;
11386;SDS011;5748;53.102;8.456;2023-03-12T06:46:01;1.80;;;1.50;;
11386;SDS011;5748;53.102;8.456;2023-03-12T06:48:31;2.07;;;1.70;;
11386;SDS011;5748;53.102;8.456;2023-03-12T06:51:00;1.50;;;1.40;;
11386;SDS011;5748;53.102;8.456;2023-03-12T06:53:28;1.77;;;1.60;;
11386;SDS011;5748;53.102;8.456;2023-03-12T06:55:56;2.10;;;1.90;;
11386;SDS011;5748;53.102;8.456;2023-03-12T06:58:23;2.73;;;1.90;;
11386;SDS011;5748;53.102;8.456;2023-03-12T07:00:50;1.83;;;1.70;;
11386;SDS011;5748;53.102;8.456;2023-03-12T07:03:19;2.90;;;1.83;;
11386;SDS011;5748;53.102;8.456;2023-03-12T07:05:47;3.10;;;1.63;;
11386;SDS011;5748;53.102;8.456;2023-03-12T07:08:15;2.10;;;1.83;;
11386;SDS011;5748;53.102;8.456;2023-03-12T07:10:43;2.77;;;1.90;;
11386;SDS011;5748;53.102;8.456;2023-03-12T07:13:12;2.07;;;1.90;;
11386;SDS011;5748;53.102;8.456;2023-03-12T07:15:40;2.43;;;1.80;;
11386;SDS011;5748;53.102;8.456;2023-03-12T07:18:09;2.10;;;1.90;;
11386;SDS011;5748;53.102;8.456;2023-03-12T07:23:11;2.00;;;1.80;;
11386;SDS011;5748;53.102;8.456;2023-03-12T07:25:39;2.20;;;2.00;;
11386;SDS011;5748;53.102;8.456;2023-03-12T07:28:09;2.10;;;1.90;;
11386;SDS011;5748;53.102;8.456;2023-03-12T07:30:37;2.30;;;2.10;;
11386;SDS011;5748;53.102;8.456;2023-03-12T07:33:18;2.03;;;1.87;;
11386;SDS011;5748;53.102;8.456;2023-03-12T07:35:48;2.33;;;1.90;;
11386;SDS011;5748;53.102;8.456;2023-03-12T07:38:14;2.00;;;1.80;;
11386;SDS011;5748;53.102;8.456;2023-03-12T07:40:41;2.30;;;2.10;;
11386;SDS011;5748;53.102;8.456;2023-03-12T07:43:08;2.10;;;1.90;;
11386;SDS011;5748;53.102;8.456;2023-03-12T07:45:36;2.17;;;1.97;;
11386;SDS011;5748;53.102;8.456;2023-03-12T07:48:05;2.20;;;2.00;;
11386;SDS011;5748;53.102;8.456;2023-03-12T07:50:33;2.30;;;2.10;;
11386;SDS011;5748;53.102;8.456;2023-03-12T07:53:02;2.70;;;2.10;;
11386;SDS011;5748;53.102;8.456;2023-03-12T07:55:47;2.70;;;2.50;;
11386;SDS011;5748;53.102;8.456;2023-03-12T07:58:14;2.30;;;2.10;;
11386;SDS011;5748;53.102;8.456;2023-03-12T08:00:41;2.23;;;2.03;;
11386;SDS011;5748;53.102;8.456;2023-03-12T08:03:09;2.30;;;2.10;;
11386;SDS011;5748;53.102;8.456;2023-03-12T08:05:36;2.30;;;2.10;;
11386;SDS011;5748;53.102;8.456;2023-03-12T08:08:04;2.40;;;2.20;;
11386;SDS011;5748;53.102;8.456;2023-03-12T08:10:32;2.67;;;2.23;;
11386;SDS011;5748;53.102;8.456;2023-03-12T08:12:59;3.13;;;2.20;;
11386;SDS011;5748;53.102;8.456;2023-03-12T08:15:26;3.23;;;2.50;;
11386;SDS011;5748;53.102;8.456;2023-03-12T08:17:53;2.97;;;2.43;;
11386;SDS011;5748;53.102;8.456;2023-03-12T08:20:20;3.10;;;2.50;;
11386;SDS011;5748;53.102;8.456;2023-03-12T08:22:47;2.77;;;2.50;;
11386;SDS011;5748;53.102;8.456;2023-03-12T08:25:15;2.50;;;2.20;;
11386;SDS011;5748;53.102;8.456;2023-03-12T08:27:45;2.40;;;2.20;;
11386;SDS011;5748;53.102;8.456;2023-03-12T08:30:12;3.50;;;2.60;;
11386;SDS011;5748;53.102;8.456;2023-03-12T08:32:39;3.87;;;2.50;;
11386;SDS011;5748;53.102;8.456;2023-03-12T08:35:06;2.87;;;2.60;;
11386;SDS011;5748;53.102;8.456;2023-03-12T08:37:34;2.67;;;2.47;;
11386;SDS011;5748;53.102;8.456;2023-03-12T08:40:01;3.70;;;3.07;;
11386;SDS011;5748;53.102;8.456;2023-03-12T08:42:38;2.83;;;2.40;;
11386;SDS011;5748;53.102;8.456;2023-03-12T08:45:05;2.50;;;2.30;;
11386;SDS011;5748;53.102;8.456;2023-03-12T08:47:34;3.43;;;2.70;;
11386;SDS011;5748;53.102;8.456;2023-03-12T08:50:01;4.23;;;2.77;;
11386;SDS011;5748;53.102;8.456;2023-03-12T08:52:28;2.50;;;2.30;;
11386;SDS011;5748;53.102;8.456;2023-03-12T08:54:55;2.83;;;2.50;;
11386;SDS011;5748;53.102;8.456;2023-03-12T08:57:22;2.50;;;2.30;;
11386;SDS011;5748;53.102;8.456;2023-03-12T08:59:51;2.70;;;2.43;;
11386;SDS011;5748;53.102;8.456;2023-03-12T09:02:17;2.53;;;2.17;;
11386;SDS011;5748;53.102;8.456;2023-03-12T09:07:21;3.43;;;2.20;;
11386;SDS011;5748;53.102;8.456;2023-03-12T09:09:54;2.93;;;2.30;;
11386;SDS011;5748;53.102;8.456;2023-03-12T09:12:22;2.53;;;2.27;;
11386;SDS011;5748;53.102;8.456;2023-03-12T09:14:57;2.23;;;2.03;;
11386;SDS011;5748;53.102;8.456;2023-03-12T09:17:25;2.07;;;1.87;;
11386;SDS011;5748;53.102;8.456;2023-03-12T09:20:05;2.23;;;2.03;;
11386;SDS011;5748;53.102;8.456;2023-03-12T09:22:40;2.80;;;2.20;;
11386;SDS011;5748;53.102;8.456;2023-03-12T09:25:07;2.20;;;2.00;;
11386;SDS011;5748;53.102;8.456;2023-03-12T09:27:41;2.47;;;2.10;;
11386;SDS011;5748;53.102;8.456;2023-03-12T09:30:27;2.20;;;2.00;;
11386;SDS011;5748;53.102;8.456;2023-03-12T09:33:05;2.37;;;1.97;;
11386;SDS011;5748;53.102;8.456;2023-03-12T09:35:34;2.87;;;2.10;;
11386;SDS011;5748;53.102;8.456;2023-03-12T09:38:04;2.27;;;2.00;;
11386;SDS011;5748;53.102;8.456;2023-03-12T09:40:34;2.13;;;1.93;;
11386;SDS011;5748;53.102;8.456;2023-03-12T09:43:20;3.07;;;2.43;;
11386;SDS011;5748;53.102;8.456;2023-03-12T09:46:00;4.00;;;2.27;;
11386;SDS011;5748;53.102;8.456;2023-03-12T09:48:34;3.13;;;2.20;;
11386;SDS011;5748;53.102;8.456;2023-03-12T09:51:12;3.83;;;1.90;;
11386;SDS011;5748;53.102;8.456;2023-03-12T09:53:46;2.67;;;2.23;;
11386;SDS011;5748;53.102;8.456;2023-03-12T09:56:23;2.10;;;1.70;;
11386;SDS011;5748;53.102;8.456;2023-03-12T09:58:53;2.27;;;2.07;;
11386;SDS011;5748;53.102;8.456;2023-03-12T10:04:22;2.07;;;1.87;;
11386;SDS011;5748;53.102;8.456;2023-03-12T10:07:06;2.13;;;1.93;;
11386;SDS011;5748;53.102;8.456;2023-03-12T10:10:00;1.80;;;1.63;;
11386;SDS011;5748;53.102;8.456;2023-03-12T10:12:42;2.00;;;1.80;;
11386;SDS011;5748;53.102;8.456;2023-03-12T10:15:40;2.50;;;1.80;;
11386;SDS011;5748;53.102;8.456;2023-03-12T10:18:23;1.97;;;1.70;;
11386;SDS011;5748;53.102;8.456;2023-03-12T10:21:04;1.80;;;1.70;;
11386;SDS011;5748;53.102;8.456;2023-03-12T10:23:43;2.33;;;1.90;;
11386;SDS011;5748;53.102;8.456;2023-03-12T10:26:28;1.93;;;1.63;;
11386;SDS011;5748;53.102;8.456;2023-03-12T10:29:01;2.00;;;1.80;;
11386;SDS011;5748;53.102;8.456;2023-03-12T10:31:40;3.13;;;2.13;;
11386;SDS011;5748;53.102;8.456;2023-03-12T10:34:19;2.73;;;1.90;;
11386;SDS011;5748;53.102;8.456;2023-03-12T10:36:52;1.50;;;1.40;;
11386;SDS011;5748;53.102;8.456;2023-03-12T10:39:25;2.73;;;1.70;;
11386;SDS011;5748;53.102;8.456;2023-03-12T10:42:11;2.37;;;1.80;;
11386;SDS011;5748;53.102;8.456;2023-03-12T10:44:41;1.70;;;1.37;;
11386;SDS011;5748;53.102;8.456;2023-03-12T10:47:15;2.50;;;2.00;;
11386;SDS011;5748;53.102;8.456;2023-03-12T10:49:58;2.00;;;1.70;;
11386;SDS011;5748;53.102;8.456;2023-03-12T10:52:47;1.97;;;1.70;;
11386;SDS011;5748;53.102;8.456;2023-03-12T10:55:22;2.53;;;1.70;;
11386;SDS011;5748;53.102;8.456;2023-03-12T11:00:30;2.80;;;2.17;;
11386;SDS011;5748;53.102;8.456;2023-03-12T11:05:49;2.50;;;1.90;;
11386;SDS011;5748;53.102;8.456;2023-03-12T11:08:23;2.23;;;1.73;;
11386;SDS011;5748;53.102;8.456;2023-03-12T11:16:52;2.30;;;1.90;;
11386;SDS011;5748;53.102;8.456;2023-03-12T11:19:27;3.10;;;2.30;;
11386;SDS011;5748;53.102;8.456;2023-03-12T11:22:01;2.10;;;1.70;;
11386;SDS011;5748;53.102;8.456;2023-03-12T11:24:31;2.13;;;1.70;;
11386;SDS011;5748;53.102;8.456;2023-03-12T11:27:01;2.40;;;1.80;;
11386;SDS011;5748;53.102;8.456;2023-03-12T11:29:47;1.93;;;1.80;;
11386;SDS011;5748;53.102;8.456;2023-03-12T11:35:08;2.30;;;2.10;;
11386;SDS011;5748;53.102;8.456;2023-03-12T11:37:43;2.33;;;1.97;;
11386;SDS011;5748;53.102;8.456;2023-03-12T11:40:26;3.27;;;2.33;;
11386;SDS011;5748;53.102;8.456;2023-03-12T11:43:18;2.47;;;1.97;;
11386;SDS011;5748;53.102;8.456;2023-03-12T11:46:07;2.50;;;2.07;;
11386;SDS011;5748;53.102;8.456;2023-03-12T11:48:55;2.20;;;2.00;;
11386;SDS011;5748;53.102;8.456;2023-03-12T11:51:40;2.97;;;2.20;;
11386;SDS011;5748;53.102;8.456;2023-03-12T11:57:14;2.30;;;2.10;;
11386;SDS011;5748;53.102;8.456;2023-03-12T11:59:56;2.23;;;2.03;;
11386;SDS011;5748;53.102;8.456;2023-03-12T12:05:52;2.30;;;2.10;;
11386;SDS011;5748;53.102;8.456;2023-03-12T12:08:31;2.00;;;1.90;;
11386;SDS011;5748;53.102;8.456;2023-03-12T12:11:21;2.00;;;1.90;;
11386;SDS011;5748;53.102;8.456;2023-03-12T12:14:00;2.23;;;1.90;;
11386;SDS011;5748;53.102;8.456;2023-03-12T12:19:43;2.27;;;2.13;;
11386;SDS011;5748;53.102;8.456;2023-03-12T12:22:28;2.20;;;2.00;;
11386;SDS011;5748;53.102;8.456;2023-03-12T12:25:14;2.40;;;2.20;;
11386;SDS011;5748;53.102;8.456;2023-03-12T12:28:02;2.20;;;2.00;;
11386;SDS011;5748;53.102;8.456;2023-03-12T12:30:48;2.10;;;1.90;;
11386;SDS011;5748;53.102;8.456;2023-03-12T12:33:39;1.90;;;1.80;;
11386;SDS011;5748;53.102;8.456;2023-03-12T12:36:20;1.80;;;1.70;;
11386;SDS011;5748;53.102;8.456;2023-03-12T12:39:08;1.47;;;1.37;;
11386;SDS011;5748;53.102;8.456;2023-03-12T12:41:57;1.87;;;1.77;;
11386;SDS011;5748;53.102;8.456;2023-03-12T12:44:45;2.90;;;2.03;;
11386;SDS011;5748;53.102;8.456;2023-03-12T12:47:16;2.00;;;1.73;;
11386;SDS011;5748;53.102;8.456;2023-03-12T12:49:48;1.93;;;1.80;;
11386;SDS011;5748;53.102;8.456;2023-03-12T12:55:18;2.27;;;2.10;;
11386;SDS011;5748;53.102;8.456;2023-03-12T12:57:59;2.63;;;2.43;;
11386;SDS011;5748;53.102;8.456;2023-03-12T13:00:44;2.50;;;2.30;;
11386;SDS011;5748;53.102;8.456;2023-03-12T13:03:31;2.63;;;2.43;;
11386;SDS011;5748;53.102;8.456;2023-03-12T13:05:59;2.70;;;2.40;;
11386;SDS011;5748;53.102;8.456;2023-03-12T13:11:42;2.40;;;2.20;;
11386;SDS011;5748;53.102;8.456;2023-03-12T13:17:14;1.83;;;1.73;;
11386;SDS011;5748;53.102;8.456;2023-03-12T13:25:57;2.67;;;1.73;;
11386;SDS011;5748;53.102;8.456;2023-03-12T13:28:32;2.00;;;1.90;;
11386;SDS011;5748;53.102;8.456;2023-03-12T13:34:27;2.10;;;1.90;;
11386;SDS011;5748;53.102;8.456;2023-03-12T13:37:17;2.10;;;1.90;;
11386;SDS011;5748;53.102;8.456;2023-03-12T13:39:58;1.67;;;1.57;;
11386;SDS011;5748;53.102;8.456;2023-03-12T13:42:36;2.40;;;1.90;;
11386;SDS011;5748;53.102;8.456;2023-03-12T13:45:22;2.17;;;2.00;;
11386;SDS011;5748;53.102;8.456;2023-03-12T13:47:54;2.10;;;1.90;;
11386;SDS011;5748;53.102;8.456;2023-03-12T13:50:26;2.50;;;2.30;;
11386;SDS011;5748;53.102;8.456;2023-03-12T13:52:59;2.50;;;2.30;;
11386;SDS011;5748;53.102;8.456;2023-03-12T13:55:30;2.50;;;2.30;;
11386;SDS011;5748;53.102;8.456;2023-03-12T13:58:00;2.30;;;2.10;;
11386;SDS011;5748;53.102;8.456;2023-03-12T14:00:38;2.23;;;2.03;;
11386;SDS011;5748;53.102;8.456;2023-03-12T14:03:11;2.60;;;2.40;;
11386;SDS011;5748;53.102;8.456;2023-03-12T14:05:46;2.90;;;2.60;;
11386;SDS011;5748;53.102;8.456;2023-03-12T14:08:24;2.47;;;2.27;;
11386;SDS011;5748;53.102;8.456;2023-03-12T14:17:30;3.10;;;2.90;;
11386;SDS011;5748;53.102;8.456;2023-03-12T14:19:59;4.33;;;3.80;;
11386;SDS011;5748;53.102;8.456;2023-03-12T14:22:31;3.40;;;3.10;;
11386;SDS011;5748;53.102;8.456;2023-03-12T14:30:57;5.03;;;4.53;;
11386;SDS011;5748;53.102;8.456;2023-03-12T14:33:30;5.00;;;4.50;;
11386;SDS011;5748;53.102;8.456;2023-03-12T14:38:46;5.13;;;4.73;;
11386;SDS011;5748;53.102;8.456;2023-03-12T14:41:17;5.93;;;5.43;;
11386;SDS011;5748;53.102;8.456;2023-03-12T14:44:05;5.13;;;4.73;;
11386;SDS011;5748;53.102;8.456;2023-03-12T14:46:54;5.10;;;4.70;;
11386;SDS011;5748;53.102;8.456;2023-03-12T14:49:22;5.00;;;4.57;;
11386;SDS011;5748;53.102;8.456;2023-03-12T14:54:59;4.90;;;4.50;;
11386;SDS011;5748;53.102;8.456;2023-03-12T14:57:30;4.57;;;4.17;;
11386;SDS011;5748;53.102;8.456;2023-03-12T14:59:58;5.03;;;4.57;;
11386;SDS011;5748;53.102;8.456;2023-03-12T15:02:29;5.07;;;4.60;;
11386;SDS011;5748;53.102;8.456;2023-03-12T15:04:57;4.97;;;4.57;;
11386;SDS011;5748;53.102;8.456;2023-03-12T15:07:27;4.80;;;4.40;;
11386;SDS011;5748;53.102;8.456;2023-03-12T15:10:01;4.97;;;4.50;;
11386;SDS011;5748;53.102;8.456;2023-03-12T15:12:36;4.93;;;4.53;;
11386;SDS011;5748;53.102;8.456;2023-03-12T15:15:25;5.77;;;5.27;;
11386;SDS011;5748;53.102;8.456;2023-03-12T15:18:06;5.93;;;5.33;;
11386;SDS011;5748;53.102;8.456;2023-03-12T15:20:38;5.17;;;4.77;;
11386;SDS011;5748;53.102;8.456;2023-03-12T15:23:08;5.33;;;4.83;;
11386;SDS011;5748;53.102;8.456;2023-03-12T15:25:39;4.60;;;4.20;;
11386;SDS011;5748;53.102;8.456;2023-03-12T15:28:07;4.70;;;4.30;;
11386;SDS011;5748;53.102;8.456;2023-03-12T15:36:56;4.17;;;3.73;;
11386;SDS011;5748;53.102;8.456;2023-03-12T15:39:24;4.30;;;3.90;;
11386;SDS011;5748;53.102;8.456;2023-03-12T15:42:00;3.90;;;3.50;;
11386;SDS011;5748;53.102;8.456;2023-03-12T15:44:34;4.00;;;3.60;;
11386;SDS011;5748;53.102;8.456;2023-03-12T15:47:11;3.87;;;3.57;;
11386;SDS011;5748;53.102;8.456;2023-03-12T15:49:41;3.83;;;3.53;;
11386;SDS011;5748;53.102;8.456;2023-03-12T15:52:27;3.70;;;3.40;;
11386;SDS011;5748;53.102;8.456;2023-03-12T15:55:01;3.60;;;3.30;;
11386;SDS011;5748;53.102;8.456;2023-03-12T16:00:53;4.00;;;3.27;;
11386;SDS011;5748;53.102;8.456;2023-03-12T16:03:41;3.90;;;3.50;;
11386;SDS011;5748;53.102;8.456;2023-03-12T16:06:10;4.20;;;3.80;;
11386;SDS011;5748;53.102;8.456;2023-03-12T16:08:47;3.90;;;3.50;;
11386;SDS011;5748;53.102;8.456;2023-03-12T16:11:19;4.57;;;4.10;;
11386;SDS011;5748;53.102;8.456;2023-03-12T16:13:52;4.93;;;4.33;;
11386;SDS011;5748;53.102;8.456;2023-03-12T16:16:28;4.47;;;3.83;;
11386;SDS011;5748;53.102;8.456;2023-03-12T16:18:55;4.80;;;4.13;;
11386;SDS011;5748;53.102;8.456;2023-03-12T16:21:22;6.07;;;4.40;;
11386;SDS011;5748;53.102;8.456;2023-03-12T16:23:50;5.53;;;4.63;;
11386;SDS011;5748;53.102;8.456;2023-03-12T16:26:17;6.90;;;5.20;;
11386;SDS011;5748;53.102;8.456;2023-03-12T16:28:44;7.00;;;5.20;;
11386;SDS011;5748;53.102;8.456;2023-03-12T16:31:12;6.53;;;5.20;;
11386;SDS011;5748;53.102;8.456;2023-03-12T16:33:41;6.17;;;4.87;;
11386;SDS011;5748;53.102;8.456;2023-03-12T16:36:11;6.27;;;4.77;;
11386;SDS011;5748;53.102;8.456;2023-03-12T16:38:40;5.37;;;4.87;;
11386;SDS011;5748;53.102;8.456;2023-03-12T16:41:09;7.77;;;5.47;;
11386;SDS011;5748;53.102;8.456;2023-03-12T16:43:39;6.27;;;4.80;;
11386;SDS011;5748;53.102;8.456;2023-03-12T16:46:07;6.57;;;4.90;;